Harrah, Oklahoma
Current Conditions -  °F | °C
As of 6:58 PM on Tuesday 25 Nov 2014 (Local Time) from KTIK Reporting Station
Clear Clear  
Wind Chill: 38°   Ceiling: Unl
Heat Index: 44°   Visibility: 10mi
Dew Point: 26°   Wind: 9mph
Humidity: 50%   Direction: 180°S
Pressure: 30.08"   Gusts: NA
Location:  35.49°N, 97.16°W
Report Text: KTIK 260058Z AUTO 18008KT 10SM CLR 06/M03 A3008 RMK AO2 SLP201 T00641035
Loading
Personal Weather Stations






























Interactive Weather Map New forecast layout! Learn more

10-Day Weather Forecast

Advertisements
Track Severe Weather on mobile